createdAt,value
2017-12-14T00:02:24.205Z,4.80
2017-12-14T00:04:51.721Z,4.90
2017-12-14T00:07:19.253Z,4.90
2017-12-14T00:09:46.760Z,4.90
2017-12-14T00:12:14.301Z,4.90
2017-12-14T00:14:41.818Z,4.90
2017-12-14T00:17:09.745Z,4.90
2017-12-14T00:19:37.276Z,5.00
2017-12-14T00:22:04.794Z,5.00
2017-12-14T00:24:32.664Z,5.10
2017-12-14T00:27:00.968Z,5.10
2017-12-14T00:29:28.497Z,5.10
2017-12-14T00:31:56.388Z,5.10
2017-12-14T00:34:24.693Z,5.20
2017-12-14T00:36:52.600Z,5.20
2017-12-14T00:39:20.117Z,5.20
2017-12-14T00:41:47.653Z,5.20
2017-12-14T00:44:15.172Z,5.10
2017-12-14T00:46:42.684Z,5.20
2017-12-14T00:49:10.217Z,5.10
2017-12-14T00:51:38.484Z,5.00
2017-12-14T00:54:06.772Z,5.00
2017-12-14T00:56:34.318Z,4.90
2017-12-14T00:59:02.594Z,4.90
2017-12-14T01:01:31.321Z,4.80
2017-12-14T01:03:59.774Z,4.70
2017-12-14T01:06:28.593Z,4.70
2017-12-14T01:08:56.632Z,4.60
2017-12-14T01:11:24.685Z,4.60
2017-12-14T01:13:52.733Z,4.50
2017-12-14T01:16:20.793Z,4.50
2017-12-14T01:18:48.850Z,4.40
2017-12-14T01:21:16.908Z,4.40
2017-12-14T01:23:45.718Z,4.30
2017-12-14T01:26:14.793Z,4.20
2017-12-14T01:28:43.230Z,4.10
2017-12-14T01:31:11.300Z,4.10
2017-12-14T01:33:40.106Z,3.90
2017-12-14T01:36:07.720Z,3.80
2017-12-14T01:38:35.238Z,3.80
2017-12-14T01:41:03.533Z,3.70
2017-12-14T01:43:31.053Z,3.70
2017-12-14T01:45:59.781Z,3.70
2017-12-14T01:48:28.162Z,3.60
2017-12-14T01:50:56.072Z,3.50
2017-12-14T01:53:23.633Z,3.30
2017-12-14T01:55:52.008Z,3.30
2017-12-14T01:58:19.513Z,3.30
2017-12-14T02:00:47.866Z,3.30
2017-12-14T02:03:15.450Z,3.30
2017-12-14T02:05:42.913Z,3.30
2017-12-14T02:08:11.193Z,3.30
2017-12-14T02:10:38.749Z,3.40
2017-12-14T02:13:06.261Z,3.40
2017-12-14T02:15:33.802Z,3.30
2017-12-14T02:18:02.083Z,3.30
2017-12-14T02:20:29.600Z,3.30
2017-12-14T02:22:57.137Z,3.20
2017-12-14T02:25:25.408Z,3.20
2017-12-14T02:27:53.684Z,3.10
2017-12-14T02:30:21.980Z,3.20
2017-12-14T02:32:50.269Z,3.30
2017-12-14T02:35:18.525Z,3.30
2017-12-14T02:37:46.046Z,3.30
2017-12-14T02:40:13.549Z,3.40
2017-12-14T02:42:41.044Z,3.40
2017-12-14T02:45:08.561Z,3.40
2017-12-14T02:47:36.052Z,3.60
2017-12-14T02:50:03.572Z,3.60
2017-12-14T02:52:31.098Z,3.70
2017-12-14T02:54:58.594Z,3.70
2017-12-14T02:57:26.977Z,3.70
2017-12-14T02:59:54.468Z,3.70
2017-12-14T03:02:22.733Z,3.80
2017-12-14T03:04:51.004Z,3.80
2017-12-14T03:07:19.264Z,3.80
2017-12-14T03:09:46.776Z,3.90
2017-12-14T03:12:14.268Z,3.90
2017-12-14T03:14:41.776Z,3.90
2017-12-14T03:17:09.664Z,3.90
2017-12-14T03:19:37.197Z,3.90
2017-12-14T03:22:04.698Z,3.90
2017-12-14T03:24:32.203Z,4.00
2017-12-14T03:27:00.471Z,4.10
2017-12-14T03:29:28.727Z,4.40
2017-12-14T03:31:56.241Z,4.60
2017-12-14T03:34:23.741Z,4.60
2017-12-14T03:36:51.650Z,4.70
2017-12-14T03:39:19.169Z,4.80
2017-12-14T03:41:46.664Z,4.80
2017-12-14T03:44:14.265Z,4.70
2017-12-14T03:46:41.824Z,4.70
2017-12-14T03:49:09.733Z,4.60
2017-12-14T03:51:37.252Z,4.60
2017-12-14T03:54:05.214Z,4.60
2017-12-14T03:56:33.278Z,4.60
2017-12-14T03:59:02.101Z,4.70
2017-12-14T04:01:30.258Z,4.70
2017-12-14T04:03:58.329Z,4.70
2017-12-14T04:06:26.382Z,4.70
2017-12-14T04:08:55.185Z,4.70
2017-12-14T04:11:23.337Z,4.70
2017-12-14T04:13:52.165Z,4.70
2017-12-14T04:16:20.301Z,4.60
2017-12-14T04:18:48.790Z,4.60
2017-12-14T04:21:16.464Z,4.60
2017-12-14T04:23:44.024Z,4.60
2017-12-14T04:26:11.588Z,4.50
2017-12-14T04:28:39.970Z,4.50
2017-12-14T04:31:07.521Z,4.50
2017-12-14T04:33:35.436Z,4.40
2017-12-14T04:36:03.736Z,4.50
2017-12-14T04:38:31.333Z,4.50
2017-12-14T04:40:58.897Z,4.50
2017-12-14T04:43:26.448Z,4.50
2017-12-14T04:45:54.373Z,4.50
2017-12-14T04:48:22.637Z,4.50
2017-12-14T04:50:50.137Z,4.50
2017-12-14T04:53:18.057Z,4.50
2017-12-14T04:55:46.036Z,4.40
2017-12-14T04:58:13.662Z,4.30
2017-12-14T05:00:41.936Z,4.30
2017-12-14T05:03:09.497Z,4.20
2017-12-14T05:05:37.000Z,4.20
2017-12-14T05:08:05.268Z,4.20
2017-12-14T05:10:33.179Z,4.10
2017-12-14T05:13:00.668Z,4.10
2017-12-14T05:15:28.233Z,4.10
2017-12-14T05:17:55.776Z,4.00
2017-12-14T05:20:23.298Z,4.00
2017-12-14T05:22:51.624Z,4.00
2017-12-14T05:25:19.180Z,3.90
2017-12-14T05:27:46.737Z,3.90
2017-12-14T05:30:15.080Z,3.80
2017-12-14T05:32:43.392Z,3.70
2017-12-14T05:35:10.956Z,3.60
2017-12-14T05:37:38.509Z,3.60
2017-12-14T05:40:06.072Z,3.60
2017-12-14T05:42:33.624Z,3.70
2017-12-14T05:45:01.289Z,3.70
2017-12-14T05:47:29.513Z,3.80
2017-12-14T05:49:57.781Z,3.80
2017-12-14T05:52:25.304Z,3.80
2017-12-14T05:54:52.865Z,3.80
2017-12-14T05:57:20.382Z,3.80
2017-12-14T05:59:48.640Z,3.70
2017-12-14T06:02:16.930Z,3.70
2017-12-14T06:04:45.193Z,3.80
2017-12-14T06:07:14.199Z,3.70
2017-12-14T06:09:42.473Z,3.80
2017-12-14T06:12:10.736Z,3.90
2017-12-14T06:14:38.245Z,4.00
2017-12-14T06:17:05.818Z,3.90
2017-12-14T06:19:33.327Z,4.00
2017-12-14T06:22:01.592Z,4.30
2017-12-14T06:24:29.113Z,4.40
2017-12-14T06:26:56.676Z,4.50
2017-12-14T06:29:24.229Z,4.80
2017-12-14T06:31:51.736Z,4.80
2017-12-14T06:34:20.082Z,5.00
2017-12-14T06:36:48.117Z,4.80
2017-12-14T06:39:16.177Z,4.60
2017-12-14T06:41:44.221Z,4.30
2017-12-14T06:44:12.280Z,4.20
2017-12-14T06:46:40.865Z,4.10
2017-12-14T06:49:08.918Z,4.00
2017-12-14T06:51:36.976Z,4.00
2017-12-14T06:54:05.034Z,4.00
2017-12-14T06:56:33.076Z,4.00
2017-12-14T06:59:01.900Z,4.00
2017-12-14T07:01:29.969Z,4.00
2017-12-14T07:03:58.037Z,4.00
2017-12-14T07:06:26.106Z,4.00
2017-12-14T07:08:54.144Z,4.10
2017-12-14T07:11:22.979Z,4.10
2017-12-14T07:13:51.050Z,4.10
2017-12-14T07:16:19.114Z,4.20
2017-12-14T07:18:47.235Z,4.30
2017-12-14T07:21:15.357Z,4.30
2017-12-14T07:23:43.407Z,4.30
2017-12-14T07:26:12.344Z,4.30
2017-12-14T07:28:40.393Z,4.50
2017-12-14T07:31:08.460Z,4.40
2017-12-14T07:33:36.503Z,4.50
2017-12-14T07:36:05.325Z,4.50
2017-12-14T07:38:33.401Z,4.50
2017-12-14T07:41:01.881Z,4.50
2017-12-14T07:43:29.932Z,4.50
2017-12-14T07:46:10.009Z,4.60
2017-12-14T07:48:38.487Z,4.60
2017-12-14T07:51:06.524Z,4.70
2017-12-14T07:53:34.985Z,4.70
2017-12-14T07:56:03.038Z,5.00
2017-12-14T07:58:31.600Z,5.40
2017-12-14T08:00:59.641Z,5.50
2017-12-14T08:03:28.553Z,5.50
2017-12-14T08:05:56.605Z,5.40
2017-12-14T08:08:24.701Z,5.90
2017-12-14T08:10:52.789Z,5.80
2017-12-14T08:13:20.949Z,5.60
2017-12-14T08:15:49.125Z,5.20
2017-12-14T08:18:17.164Z,5.00
2017-12-14T08:20:45.605Z,4.90
2017-12-14T08:23:13.670Z,4.80
2017-12-14T08:25:41.817Z,4.90
2017-12-14T08:28:09.900Z,4.80
2017-12-14T08:30:39.073Z,4.80
2017-12-14T08:33:07.987Z,4.90
2017-12-14T08:35:36.054Z,4.90
2017-12-14T08:38:04.121Z,4.80
2017-12-14T08:40:32.163Z,4.80
2017-12-14T08:43:00.677Z,4.90
2017-12-14T08:45:28.712Z,4.90
2017-12-14T08:47:57.553Z,4.90
2017-12-14T08:50:25.715Z,4.90
2017-12-14T08:52:53.776Z,5.60
2017-12-14T08:55:21.860Z,6.50
2017-12-14T08:57:49.930Z,7.60
2017-12-14T09:00:17.993Z,8.00
2017-12-14T09:02:46.788Z,9.00
2017-12-14T09:05:14.855Z,9.40
2017-12-14T09:07:43.197Z,9.40
2017-12-14T09:10:10.704Z,9.70
2017-12-14T09:12:38.276Z,8.80
2017-12-14T09:15:05.772Z,7.80
2017-12-14T09:17:33.290Z,8.00
2017-12-14T09:20:00.853Z,7.70
2017-12-14T09:22:28.372Z,8.20
2017-12-14T09:24:56.632Z,8.90
2017-12-14T09:27:24.969Z,8.70
2017-12-14T09:29:52.484Z,10.00
2017-12-14T09:32:19.989Z,10.20
2017-12-14T09:34:47.520Z,10.60
2017-12-14T09:37:15.020Z,11.00
2017-12-14T09:39:42.571Z,10.90
2017-12-14T09:42:10.125Z,10.00
2017-12-14T09:44:37.736Z,9.30
2017-12-14T09:47:05.209Z,9.40
2017-12-14T09:49:33.108Z,8.50
2017-12-14T09:52:00.603Z,7.80
2017-12-14T09:54:28.116Z,7.20
2017-12-14T09:56:55.693Z,6.90
2017-12-14T09:59:23.200Z,6.60
2017-12-14T10:01:51.455Z,6.50
2017-12-14T10:04:18.974Z,6.40
2017-12-14T10:06:46.464Z,6.40
2017-12-14T10:09:14.414Z,6.40
2017-12-14T10:11:41.965Z,6.40
2017-12-14T10:14:09.484Z,6.40
2017-12-14T10:16:37.744Z,6.60
2017-12-14T10:19:05.632Z,6.60
2017-12-14T10:21:33.145Z,6.60
2017-12-14T10:24:00.661Z,6.60
2017-12-14T10:26:28.964Z,6.50
2017-12-14T10:28:56.488Z,6.40
2017-12-14T10:31:24.735Z,6.30
2017-12-14T10:33:53.161Z,6.40
2017-12-14T10:36:21.230Z,6.40
2017-12-14T10:38:49.573Z,6.40
2017-12-14T10:41:17.904Z,6.30
2017-12-14T10:43:45.417Z,6.30
2017-12-14T10:46:13.696Z,6.30
2017-12-14T10:48:42.015Z,6.30
2017-12-14T10:51:09.516Z,6.30
2017-12-14T10:53:37.037Z,6.40
2017-12-14T10:56:04.544Z,6.50
2017-12-14T10:58:32.872Z,6.50
2017-12-14T11:01:06.197Z,6.60
2017-12-14T11:03:33.729Z,6.70
2017-12-14T11:06:01.228Z,6.70
2017-12-14T11:08:28.746Z,6.80
2017-12-14T11:10:56.240Z,6.80
2017-12-14T11:13:23.759Z,6.70
2017-12-14T11:15:51.329Z,6.50
2017-12-14T11:18:18.884Z,6.50
2017-12-14T11:20:47.156Z,6.50
2017-12-14T11:23:14.657Z,6.60
2017-12-14T11:25:42.190Z,6.60
2017-12-14T11:28:09.689Z,6.50
2017-12-14T11:30:37.953Z,6.40
2017-12-14T11:33:06.238Z,6.40
2017-12-14T11:35:34.503Z,6.40
2017-12-14T11:38:02.032Z,6.40
2017-12-14T11:40:29.591Z,6.40
2017-12-14T11:42:57.532Z,6.50
2017-12-14T11:45:24.988Z,6.50
2017-12-14T11:47:52.569Z,6.60
2017-12-14T11:50:20.071Z,6.60
2017-12-14T11:52:47.588Z,6.50
2017-12-14T11:55:15.101Z,6.60
2017-12-14T11:57:43.438Z,6.70
2017-12-14T12:00:10.953Z,6.80
2017-12-14T12:02:38.516Z,6.70
2017-12-14T12:05:06.076Z,6.80
2017-12-14T12:07:33.669Z,6.70
2017-12-14T12:10:01.224Z,6.70
2017-12-14T12:12:28.740Z,6.70
2017-12-14T12:14:56.765Z,6.70
2017-12-14T12:17:25.037Z,6.70
2017-12-14T12:19:52.536Z,6.70
2017-12-14T12:22:20.869Z,6.70
2017-12-14T12:24:49.261Z,6.70
2017-12-14T12:27:16.757Z,6.70
2017-12-14T12:29:45.038Z,6.70
2017-12-14T12:32:13.366Z,6.70
2017-12-14T12:34:40.868Z,6.60
2017-12-14T12:37:09.197Z,6.50
2017-12-14T12:39:37.174Z,6.40
2017-12-14T12:42:05.625Z,6.30
2017-12-14T12:44:34.025Z,6.00
2017-12-14T12:47:01.912Z,5.80
2017-12-14T12:49:29.420Z,5.80
2017-12-14T12:51:56.920Z,5.70
2017-12-14T12:54:24.479Z,5.70
2017-12-14T12:56:52.756Z,5.70
2017-12-14T12:59:20.313Z,5.60
2017-12-14T13:01:47.865Z,5.60
2017-12-14T13:04:15.421Z,5.60
2017-12-14T13:06:43.687Z,5.60
2017-12-14T13:09:11.201Z,5.60
2017-12-14T13:11:39.541Z,5.60
2017-12-14T13:14:07.036Z,5.60
2017-12-14T13:16:34.966Z,5.60
2017-12-14T13:19:02.529Z,5.60
2017-12-14T13:21:30.084Z,5.60
2017-12-14T13:23:57.577Z,5.60
2017-12-14T13:26:26.679Z,5.50
2017-12-14T13:28:54.148Z,5.50
2017-12-14T13:31:22.408Z,5.50
2017-12-14T13:33:49.928Z,5.50
2017-12-14T13:36:17.491Z,5.50
2017-12-14T13:38:44.997Z,5.50
2017-12-14T13:41:13.277Z,5.40
2017-12-14T13:43:41.609Z,5.40
2017-12-14T13:46:09.124Z,5.40
2017-12-14T13:48:37.012Z,5.40
2017-12-14T13:51:04.999Z,5.30
2017-12-14T13:53:32.492Z,5.30
2017-12-14T13:56:01.525Z,5.30
2017-12-14T13:58:29.047Z,5.30
2017-12-14T14:00:57.030Z,5.40
2017-12-14T14:03:24.537Z,5.40
2017-12-14T14:05:52.056Z,5.30
2017-12-14T14:08:20.327Z,5.40
2017-12-14T14:10:48.605Z,5.40
2017-12-14T14:13:16.877Z,5.40
2017-12-14T14:15:45.145Z,5.40
2017-12-14T14:18:12.664Z,5.40
2017-12-14T14:20:40.172Z,5.40
2017-12-14T14:23:08.437Z,5.40
2017-12-14T14:25:35.961Z,5.40
2017-12-14T14:28:03.544Z,5.30
2017-12-14T14:30:31.072Z,5.30
2017-12-14T14:32:58.640Z,5.40
2017-12-14T14:35:26.141Z,5.30
2017-12-14T14:37:54.074Z,5.30
2017-12-14T14:40:21.624Z,5.30
2017-12-14T14:42:49.149Z,5.30
2017-12-14T14:45:16.668Z,5.20
2017-12-14T14:47:44.221Z,5.20
2017-12-14T14:50:12.584Z,5.20
2017-12-14T14:52:40.149Z,5.10
2017-12-14T14:55:07.705Z,5.10
2017-12-14T14:57:35.209Z,5.10
2017-12-14T15:00:03.543Z,5.00
2017-12-14T15:02:31.032Z,4.90
2017-12-14T15:05:00.062Z,4.90
2017-12-14T15:07:27.604Z,4.90
2017-12-14T15:09:55.878Z,4.90
2017-12-14T15:12:24.144Z,4.90
2017-12-14T15:14:52.485Z,4.90
2017-12-14T15:17:20.046Z,4.90
2017-12-14T15:19:47.600Z,4.90
2017-12-14T15:22:15.096Z,4.90
2017-12-14T15:24:42.731Z,4.90
2017-12-14T15:27:10.281Z,4.90
2017-12-14T15:29:38.566Z,4.90
2017-12-14T15:32:06.077Z,4.90
2017-12-14T15:34:33.686Z,4.90
2017-12-14T15:37:01.236Z,4.90
2017-12-14T15:39:28.796Z,5.00
2017-12-14T15:41:56.288Z,5.00
2017-12-14T15:44:24.648Z,5.00
2017-12-14T15:46:52.852Z,5.00
2017-12-14T15:49:21.190Z,5.00
2017-12-14T15:51:48.755Z,5.00
2017-12-14T15:54:16.665Z,5.00
2017-12-14T15:56:45.000Z,5.00
2017-12-14T15:59:12.526Z,5.00
2017-12-14T16:01:40.021Z,5.00
2017-12-14T16:04:07.515Z,5.00
2017-12-14T16:06:35.429Z,4.90
2017-12-14T16:09:02.924Z,4.90
2017-12-14T16:11:30.448Z,4.90
2017-12-14T16:13:58.017Z,4.90
2017-12-14T16:16:25.530Z,4.90
2017-12-14T16:18:53.448Z,4.90
2017-12-14T16:21:21.037Z,4.90
2017-12-14T16:23:49.376Z,4.80
2017-12-14T16:26:17.348Z,4.70
2017-12-14T16:28:44.916Z,4.70
2017-12-14T16:31:12.440Z,4.60
2017-12-14T16:33:39.981Z,4.60
2017-12-14T16:36:07.589Z,4.60
2017-12-14T16:38:35.145Z,4.50
2017-12-14T16:41:02.717Z,4.60
2017-12-14T16:43:30.232Z,4.50
2017-12-14T16:45:57.748Z,4.60
2017-12-14T16:48:26.056Z,4.60
2017-12-14T16:50:53.969Z,4.60
2017-12-14T16:53:21.536Z,4.60
2017-12-14T16:55:49.077Z,4.50
2017-12-14T16:58:16.648Z,4.60
2017-12-14T17:00:44.212Z,4.60
2017-12-14T17:03:11.740Z,4.50
2017-12-14T17:05:39.334Z,4.50
2017-12-14T17:08:06.896Z,4.50
2017-12-14T17:10:34.408Z,4.40
2017-12-14T17:13:02.024Z,4.40
2017-12-14T17:15:29.573Z,4.30
2017-12-14T17:17:57.097Z,4.40
2017-12-14T17:20:24.696Z,4.30
2017-12-14T17:22:52.212Z,4.30
2017-12-14T17:25:19.740Z,4.20
2017-12-14T17:27:48.068Z,4.20
2017-12-14T17:30:15.644Z,4.10
2017-12-14T17:32:43.594Z,4.10
2017-12-14T17:35:11.181Z,4.00
2017-12-14T17:37:38.712Z,4.00
2017-12-14T17:40:06.229Z,4.10
2017-12-14T17:42:34.524Z,4.10
2017-12-14T17:45:02.458Z,4.20
2017-12-14T17:47:30.000Z,4.20
2017-12-14T17:49:57.556Z,4.30
2017-12-14T17:52:25.856Z,4.30
2017-12-14T17:54:54.216Z,4.30
2017-12-14T17:57:22.145Z,4.40
2017-12-14T17:59:50.449Z,4.40
2017-12-14T18:02:18.733Z,4.40
2017-12-14T18:04:47.121Z,4.40
2017-12-14T18:07:15.028Z,4.40
2017-12-14T18:09:43.316Z,4.50
2017-12-14T18:12:11.616Z,4.40
2017-12-14T18:14:39.981Z,4.40
2017-12-14T18:17:08.746Z,4.50
2017-12-14T18:19:36.678Z,4.50
2017-12-14T18:22:04.429Z,4.70
2017-12-14T18:24:32.713Z,4.70
2017-12-14T18:27:00.996Z,4.80
2017-12-14T18:29:29.061Z,4.70
2017-12-14T18:31:57.356Z,4.70
2017-12-14T18:34:26.402Z,4.70
2017-12-14T18:36:55.134Z,4.70
2017-12-14T18:39:22.694Z,4.70
2017-12-14T18:41:50.701Z,4.70
2017-12-14T18:44:18.918Z,4.80
2017-12-14T18:46:46.816Z,4.80
2017-12-14T18:49:14.757Z,4.90
2017-12-14T18:51:42.966Z,4.90
2017-12-14T18:54:10.615Z,4.90
2017-12-14T18:56:38.129Z,4.90
2017-12-14T18:59:05.832Z,4.90
2017-12-14T19:01:33.763Z,4.90
2017-12-14T19:04:02.171Z,5.00
2017-12-14T19:06:30.166Z,5.00
2017-12-14T19:08:57.718Z,5.00
2017-12-14T19:11:26.136Z,5.00
2017-12-14T19:13:54.096Z,5.00
2017-12-14T19:16:22.126Z,4.90
2017-12-14T19:18:50.037Z,4.80
2017-12-14T19:21:17.657Z,4.70
2017-12-14T19:23:45.721Z,4.70
2017-12-14T19:26:13.644Z,4.50
2017-12-14T19:28:41.908Z,4.50
2017-12-14T19:31:10.193Z,4.50
2017-12-14T19:33:38.532Z,4.50
2017-12-14T19:36:06.492Z,4.40
2017-12-14T19:38:34.021Z,4.40
2017-12-14T19:41:02.341Z,4.40
2017-12-14T19:43:29.893Z,4.40
2017-12-14T19:45:57.812Z,4.40
2017-12-14T19:48:25.724Z,4.30
2017-12-14T19:50:53.289Z,4.30
2017-12-14T19:53:20.808Z,4.30
2017-12-14T19:55:48.812Z,4.20
2017-12-14T19:58:16.783Z,4.20
2017-12-14T20:00:45.232Z,4.30
2017-12-14T20:03:13.232Z,4.30
2017-12-14T20:05:41.568Z,4.20
2017-12-14T20:08:09.582Z,4.20
2017-12-14T20:10:37.975Z,4.20
2017-12-14T20:13:05.937Z,4.20
2017-12-14T20:15:35.072Z,4.20
2017-12-14T20:18:03.409Z,4.20
2017-12-14T20:20:31.794Z,4.20
2017-12-14T20:22:59.714Z,4.30
2017-12-14T20:25:28.009Z,4.20
2017-12-14T20:27:56.722Z,4.20
2017-12-14T20:30:24.284Z,4.30
2017-12-14T20:32:52.184Z,4.30
2017-12-14T20:35:20.109Z,4.30
2017-12-14T20:37:48.084Z,4.30
2017-12-14T20:40:15.997Z,4.20
2017-12-14T20:42:43.951Z,4.20
2017-12-14T20:45:11.902Z,4.20
2017-12-14T20:47:40.189Z,4.20
2017-12-14T20:50:08.549Z,4.20
2017-12-14T20:52:36.481Z,4.20
2017-12-14T20:55:04.758Z,4.20
2017-12-14T20:57:32.720Z,4.10
2017-12-14T21:00:00.984Z,4.10
2017-12-14T21:02:29.252Z,4.10
2017-12-14T21:04:57.605Z,4.10
2017-12-14T21:07:25.569Z,4.10
2017-12-14T21:09:53.844Z,4.10
2017-12-14T21:12:22.120Z,4.10
2017-12-14T21:14:50.477Z,4.20
2017-12-14T21:17:18.364Z,4.10
2017-12-14T21:19:46.628Z,4.10
2017-12-14T21:22:14.908Z,4.10
2017-12-14T21:24:42.884Z,4.10
2017-12-14T21:27:11.237Z,4.10
2017-12-14T21:29:39.544Z,4.00
2017-12-14T21:32:07.822Z,4.00
2017-12-14T21:34:35.708Z,4.00
2017-12-14T21:37:04.733Z,4.00
2017-12-14T21:39:32.269Z,4.00
2017-12-14T21:42:00.630Z,4.00
2017-12-14T21:44:28.145Z,4.00
2017-12-14T21:46:56.413Z,4.00
2017-12-14T21:49:24.330Z,3.90
2017-12-14T21:51:52.248Z,3.90
2017-12-14T21:54:20.510Z,4.00
2017-12-14T21:56:48.848Z,3.90
2017-12-14T21:59:16.741Z,3.90
2017-12-14T22:01:44.261Z,3.90
2017-12-14T22:04:11.752Z,3.90
2017-12-14T22:06:40.825Z,3.90
2017-12-14T22:09:08.337Z,3.90
2017-12-14T22:11:36.247Z,3.90
2017-12-14T22:14:04.542Z,3.80
2017-12-14T22:16:32.024Z,3.90
2017-12-14T22:18:59.542Z,3.90
2017-12-14T22:21:27.056Z,3.90
2017-12-14T22:23:55.316Z,3.90
2017-12-14T22:26:23.592Z,3.90
2017-12-14T22:28:51.113Z,3.90
2017-12-14T22:31:18.629Z,3.90
2017-12-14T22:33:46.924Z,3.90
2017-12-14T22:36:14.421Z,3.90
2017-12-14T22:38:41.928Z,4.00
2017-12-14T22:41:10.197Z,4.00
2017-12-14T22:43:38.473Z,4.00
2017-12-14T22:46:06.085Z,3.90
2017-12-14T22:48:33.644Z,4.00
2017-12-14T22:51:01.205Z,4.00
2017-12-14T22:53:28.774Z,4.00
2017-12-14T22:55:56.320Z,4.00
2017-12-14T22:58:23.832Z,4.00
2017-12-14T23:00:52.110Z,4.10
2017-12-14T23:03:20.393Z,4.10
2017-12-14T23:05:48.664Z,4.10
2017-12-14T23:08:17.004Z,4.10
2017-12-14T23:10:44.516Z,4.10
2017-12-14T23:13:12.013Z,4.10
2017-12-14T23:15:39.564Z,4.10
2017-12-14T23:18:07.074Z,4.10
2017-12-14T23:20:34.617Z,4.10
2017-12-14T23:23:02.143Z,4.20
2017-12-14T23:25:29.641Z,4.20
2017-12-14T23:27:57.156Z,4.20
2017-12-14T23:30:24.729Z,4.20
2017-12-14T23:32:52.222Z,4.20
2017-12-14T23:35:19.740Z,4.20
2017-12-14T23:37:47.249Z,4.20
2017-12-14T23:40:15.529Z,4.20
2017-12-14T23:42:43.061Z,4.20
2017-12-14T23:45:11.345Z,4.20
2017-12-14T23:47:39.626Z,4.10
2017-12-14T23:50:07.922Z,4.10
2017-12-14T23:52:35.452Z,4.10
2017-12-14T23:55:03.751Z,4.10
2017-12-14T23:57:31.228Z,4.10
2017-12-14T23:59:58.757Z,4.20
